createdAt,value
2023-03-11T00:00:56.287Z,93362.00
2023-03-11T00:03:24.067Z,93389.56
2023-03-11T00:05:52.717Z,93394.06
2023-03-11T00:08:22.692Z,93395.50
2023-03-11T00:10:54.352Z,93384.78
2023-03-11T00:13:21.620Z,93407.00
2023-03-11T00:15:50.652Z,93414.97
2023-03-11T00:18:17.782Z,93424.38
2023-03-11T00:20:46.342Z,93447.72
2023-03-11T00:23:14.814Z,93428.75
2023-03-11T00:25:44.296Z,93434.44
2023-03-11T00:28:12.024Z,93451.72
2023-03-11T00:30:40.624Z,93439.56
2023-03-11T00:33:08.558Z,93450.22
2023-03-11T00:35:36.275Z,93463.28
2023-03-11T00:38:08.415Z,93461.25
2023-03-11T00:40:36.345Z,93464.72
2023-03-11T00:43:04.017Z,93478.00
2023-03-11T00:45:31.821Z,93470.22
2023-03-11T00:47:58.749Z,93476.09
2023-03-11T00:50:32.405Z,93484.53
2023-03-11T00:52:59.763Z,93497.25
2023-03-11T00:55:32.213Z,93481.63
2023-03-11T00:58:03.272Z,93515.31
2023-03-11T01:00:37.484Z,93513.47
2023-03-11T01:03:04.379Z,93528.75
2023-03-11T01:05:33.847Z,93520.28
2023-03-11T01:08:03.087Z,93514.66
2023-03-11T01:10:31.410Z,93529.75
2023-03-11T01:12:58.296Z,93531.16
2023-03-11T01:15:32.025Z,93538.59
2023-03-11T01:17:59.320Z,93519.50
2023-03-11T01:20:26.310Z,93532.94
2023-03-11T01:22:53.107Z,93519.66
2023-03-11T01:25:22.322Z,93541.16
2023-03-11T01:27:50.680Z,93536.97
2023-03-11T01:30:23.855Z,93537.63
2023-03-11T01:32:52.298Z,93525.09
2023-03-11T01:35:21.314Z,93521.28
2023-03-11T01:37:48.137Z,93539.25
2023-03-11T01:40:24.271Z,93539.78
2023-03-11T01:42:51.830Z,93544.19
2023-03-11T01:45:36.434Z,93536.84
2023-03-11T01:48:04.063Z,93557.81
2023-03-11T01:50:35.971Z,93557.25
2023-03-11T01:53:04.632Z,93545.53
2023-03-11T01:55:32.744Z,93535.97
2023-03-11T01:58:03.412Z,93535.88
2023-03-11T02:00:30.281Z,93539.75
2023-03-11T02:03:00.532Z,93546.47
2023-03-11T02:05:28.052Z,93538.09
2023-03-11T02:07:56.511Z,93540.78
2023-03-11T02:10:27.682Z,93531.88
2023-03-11T02:12:55.521Z,93522.16
2023-03-11T02:15:24.440Z,93523.50
2023-03-11T02:17:52.725Z,93519.41
2023-03-11T02:20:32.455Z,93534.41
2023-03-11T02:23:01.304Z,93514.53
2023-03-11T02:25:53.937Z,93518.91
2023-03-11T02:28:22.046Z,93536.34
2023-03-11T02:30:50.605Z,93515.25
2023-03-11T02:33:19.371Z,93539.59
2023-03-11T02:35:47.365Z,93527.28
2023-03-11T02:38:14.464Z,93521.66
2023-03-11T02:40:49.725Z,93549.59
2023-03-11T02:43:23.990Z,93553.75
2023-03-11T02:45:50.913Z,93541.03
2023-03-11T02:48:18.908Z,93555.94
2023-03-11T02:50:47.253Z,93546.78
2023-03-11T02:53:15.732Z,93524.78
2023-03-11T02:55:43.022Z,93528.50
2023-03-11T02:58:10.304Z,93534.44
2023-03-11T03:00:37.467Z,93516.31
2023-03-11T03:03:07.545Z,93520.38
2023-03-11T03:05:34.271Z,93527.84
2023-03-11T03:08:02.951Z,93527.97
2023-03-11T03:10:30.184Z,93523.50
2023-03-11T03:12:58.001Z,93520.22
2023-03-11T03:15:25.916Z,93554.84
2023-03-11T03:17:52.653Z,93560.31
2023-03-11T03:20:22.675Z,93566.22
2023-03-11T03:22:53.004Z,93568.75
2023-03-11T03:25:22.770Z,93581.88
2023-03-11T03:27:50.470Z,93564.81
2023-03-11T03:30:17.327Z,93558.38
2023-03-11T03:32:44.848Z,93566.03
2023-03-11T03:35:15.101Z,93561.97
2023-03-11T03:37:55.248Z,93578.88
2023-03-11T03:40:22.972Z,93566.53
2023-03-11T03:42:50.765Z,93561.19
2023-03-11T03:45:17.990Z,93570.91
2023-03-11T03:47:45.349Z,93579.81
2023-03-11T03:50:13.365Z,93591.94
2023-03-11T03:52:43.924Z,93601.63
2023-03-11T03:55:11.410Z,93583.91
2023-03-11T03:57:38.760Z,93569.03
2023-03-11T04:00:10.677Z,93568.63
2023-03-11T04:02:41.470Z,93568.22
2023-03-11T04:05:16.688Z,93575.16
2023-03-11T04:07:44.599Z,93592.84
2023-03-11T04:10:14.277Z,93625.31
2023-03-11T04:12:42.693Z,93615.94
2023-03-11T04:15:10.192Z,93620.91
2023-03-11T04:17:38.532Z,93608.47
2023-03-11T04:20:10.354Z,93629.53
2023-03-11T04:22:37.667Z,93627.06
2023-03-11T04:25:05.589Z,93623.69
2023-03-11T04:27:33.116Z,93613.47
2023-03-11T04:30:01.274Z,93617.28
2023-03-11T04:32:29.081Z,93615.84
2023-03-11T04:34:56.462Z,93642.31
2023-03-11T04:37:27.885Z,93640.16
2023-03-11T04:39:54.723Z,93637.38
2023-03-11T04:42:21.487Z,93627.47
2023-03-11T04:44:48.745Z,93622.75
2023-03-11T04:47:15.510Z,93622.28
2023-03-11T04:49:43.016Z,93635.69
2023-03-11T04:52:11.686Z,93639.94
2023-03-11T04:54:38.560Z,93635.28
2023-03-11T04:57:06.072Z,93629.06
2023-03-11T04:59:33.507Z,93648.63
2023-03-11T05:02:00.282Z,93647.53
2023-03-11T05:04:27.181Z,93626.16
2023-03-11T05:06:54.302Z,93630.84
2023-03-11T05:09:24.202Z,93644.31
2023-03-11T05:11:50.965Z,93643.31
2023-03-11T05:14:19.311Z,93638.16
2023-03-11T05:16:46.216Z,93650.22
2023-03-11T05:19:31.862Z,93635.84
2023-03-11T05:22:02.781Z,93650.75
2023-03-11T05:24:30.133Z,93663.28
2023-03-11T05:26:58.468Z,93650.84
2023-03-11T05:29:25.939Z,93668.34
2023-03-11T05:31:54.223Z,93665.31
2023-03-11T05:34:21.468Z,93666.53
2023-03-11T05:36:48.831Z,93658.22
2023-03-11T05:39:16.106Z,93667.13
2023-03-11T05:41:44.540Z,93673.34
2023-03-11T05:44:11.961Z,93670.53
2023-03-11T05:46:39.480Z,93670.34
2023-03-11T05:49:07.062Z,93666.91
2023-03-11T05:51:34.361Z,93668.88
2023-03-11T05:54:01.466Z,93674.94
2023-03-11T05:56:36.110Z,93678.28
2023-03-11T05:59:03.471Z,93671.66
2023-03-11T06:01:33.963Z,93664.56
2023-03-11T06:04:00.751Z,93666.03
2023-03-11T06:06:28.645Z,93678.25
2023-03-11T06:08:56.080Z,93674.38
2023-03-11T06:11:25.791Z,93681.69
2023-03-11T06:13:57.243Z,93678.53
2023-03-11T06:16:26.887Z,93674.69
2023-03-11T06:19:00.666Z,93681.44
2023-03-11T06:21:30.772Z,93682.94
2023-03-11T06:23:57.939Z,93696.94
2023-03-11T06:26:27.807Z,93703.41
2023-03-11T06:28:54.676Z,93702.41
2023-03-11T06:31:27.168Z,93718.06
2023-03-11T06:34:06.491Z,93728.25
2023-03-11T06:36:33.818Z,93715.91
2023-03-11T06:39:00.563Z,93727.13
2023-03-11T06:41:29.039Z,93720.88
2023-03-11T06:43:59.753Z,93724.06
2023-03-11T06:46:28.031Z,93708.69
2023-03-11T06:48:57.916Z,93721.34
2023-03-11T06:51:25.175Z,93742.56
2023-03-11T06:53:53.743Z,93741.53
2023-03-11T06:56:23.274Z,93745.03
2023-03-11T06:59:00.869Z,93750.97
2023-03-11T07:01:31.329Z,93739.03
2023-03-11T07:04:00.526Z,93757.09
2023-03-11T07:06:29.328Z,93754.69
2023-03-11T07:09:04.424Z,93770.84
2023-03-11T07:11:33.052Z,93761.56
2023-03-11T07:14:06.796Z,93767.63
2023-03-11T07:16:39.136Z,93773.66
2023-03-11T07:19:12.352Z,93782.13
2023-03-11T07:21:40.318Z,93785.69
2023-03-11T07:24:07.523Z,93785.91
2023-03-11T07:26:35.834Z,93792.69
2023-03-11T07:29:02.617Z,93805.22
2023-03-11T07:31:32.017Z,93793.88
2023-03-11T07:34:01.044Z,93821.56
2023-03-11T07:36:29.537Z,93813.38
2023-03-11T07:39:04.450Z,93822.75
2023-03-11T07:41:33.934Z,93813.25
2023-03-11T07:44:03.001Z,93823.19
2023-03-11T07:46:31.591Z,93833.03
2023-03-11T07:48:59.564Z,93823.81
2023-03-11T07:51:30.864Z,93850.25
2023-03-11T07:53:59.923Z,93864.97
2023-03-11T07:56:29.867Z,93862.81
2023-03-11T07:58:59.882Z,93850.66
2023-03-11T08:01:30.672Z,93848.84
2023-03-11T08:03:59.068Z,93849.38
2023-03-11T08:06:31.310Z,93857.63
2023-03-11T08:09:00.673Z,93867.22
2023-03-11T08:11:28.656Z,93861.19
2023-03-11T08:13:57.861Z,93858.47
2023-03-11T08:16:25.902Z,93885.13
2023-03-11T08:18:53.613Z,93876.88
2023-03-11T08:21:26.571Z,93868.84
2023-03-11T08:23:59.120Z,93880.91
2023-03-11T08:26:26.787Z,93879.72
2023-03-11T08:28:55.337Z,93881.81
2023-03-11T08:31:31.173Z,93882.78
2023-03-11T08:34:01.409Z,93893.94
2023-03-11T08:36:29.264Z,93888.94
2023-03-11T08:38:56.627Z,93902.84
2023-03-11T08:41:23.467Z,93909.13
2023-03-11T08:43:52.310Z,93902.31
2023-03-11T08:46:30.185Z,93902.16
2023-03-11T08:49:01.035Z,93912.81
2023-03-11T08:51:30.365Z,93910.34
2023-03-11T08:53:57.656Z,93914.13
2023-03-11T08:56:24.492Z,93919.03
2023-03-11T08:58:51.846Z,93909.22
2023-03-11T09:01:20.240Z,93911.59
2023-03-11T09:03:47.072Z,93923.34
2023-03-11T09:06:16.273Z,93931.41
2023-03-11T09:08:44.534Z,93905.38
2023-03-11T09:11:13.597Z,93879.44
2023-03-11T09:13:42.726Z,93921.00
2023-03-11T09:16:13.598Z,93910.44
2023-03-11T09:18:41.090Z,93909.16
2023-03-11T09:21:08.352Z,93926.94
2023-03-11T09:23:35.265Z,93920.97
2023-03-11T09:26:02.012Z,93921.91
2023-03-11T09:28:28.745Z,93918.28
2023-03-11T09:30:56.990Z,93922.22
2023-03-11T09:33:24.112Z,93922.31
2023-03-11T09:35:50.961Z,93950.44
2023-03-11T09:38:17.717Z,93932.00
2023-03-11T09:40:59.781Z,93939.50
2023-03-11T09:43:55.456Z,93954.13
2023-03-11T09:46:41.191Z,93945.72
2023-03-11T09:49:23.537Z,93959.75
2023-03-11T09:52:17.687Z,93962.50
2023-03-11T09:54:51.652Z,93970.19
2023-03-11T09:57:24.133Z,93960.44
2023-03-11T09:59:51.338Z,93971.38
2023-03-11T10:02:20.594Z,93960.88
2023-03-11T10:05:03.468Z,93962.66
2023-03-11T10:08:12.807Z,93978.19
2023-03-11T10:10:49.176Z,93970.63
2023-03-11T10:13:31.229Z,93975.47
2023-03-11T10:16:10.133Z,93986.69
2023-03-11T10:19:02.235Z,93967.78
2023-03-11T10:21:30.254Z,93977.94
2023-03-11T10:24:13.844Z,93989.91
2023-03-11T10:26:58.008Z,93984.00
2023-03-11T10:29:31.262Z,94008.31
2023-03-11T10:32:13.116Z,94015.22
2023-03-11T10:34:46.302Z,93992.69
2023-03-11T10:37:28.975Z,94001.63
2023-03-11T10:40:18.080Z,94006.09
2023-03-11T10:42:47.504Z,94009.94
2023-03-11T10:45:14.869Z,93986.50
2023-03-11T10:47:42.506Z,94036.19
2023-03-11T10:50:28.134Z,94036.81
2023-03-11T10:53:24.501Z,94037.41
2023-03-11T10:55:54.321Z,94035.88
2023-03-11T10:58:27.209Z,94042.00
2023-03-11T11:01:18.139Z,94041.34
2023-03-11T11:03:50.879Z,94017.09
2023-03-11T11:06:25.654Z,94016.47
2023-03-11T11:09:14.549Z,94035.78
2023-03-11T11:11:41.832Z,94036.53
2023-03-11T11:14:10.373Z,94061.44
2023-03-11T11:16:37.848Z,94048.81
2023-03-11T11:19:16.198Z,94044.91
2023-03-11T11:21:52.244Z,94053.59
2023-03-11T11:24:24.611Z,94036.97
2023-03-11T11:27:04.991Z,94039.28
2023-03-11T11:29:32.708Z,94029.19
2023-03-11T11:32:26.008Z,94037.97
2023-03-11T11:34:59.211Z,94050.91
2023-03-11T11:37:32.279Z,94046.69
2023-03-11T11:40:17.194Z,94036.84
2023-03-11T11:42:53.755Z,94031.91
2023-03-11T11:45:34.628Z,94032.16
2023-03-11T11:48:07.357Z,94041.06
2023-03-11T11:50:43.373Z,94055.31
2023-03-11T11:53:21.569Z,94047.22
2023-03-11T11:55:52.601Z,94048.19
2023-03-11T11:58:20.334Z,94029.47
2023-03-11T12:00:58.237Z,94047.16
2023-03-11T12:04:06.805Z,94026.34
2023-03-11T12:06:48.472Z,94033.31
2023-03-11T12:09:30.806Z,94026.94
2023-03-11T12:12:08.788Z,94052.63
2023-03-11T12:15:25.054Z,94051.63
2023-03-11T12:17:59.514Z,94026.81
2023-03-11T12:20:47.601Z,94046.84
2023-03-11T12:23:37.897Z,94050.03
2023-03-11T12:26:04.670Z,94051.75
2023-03-11T12:29:19.855Z,94047.72
2023-03-11T12:31:48.825Z,94030.22
2023-03-11T12:34:19.899Z,94011.88
2023-03-11T12:36:48.912Z,94022.75
2023-03-11T12:39:34.250Z,94035.16
2023-03-11T12:42:16.042Z,94016.38
2023-03-11T12:44:45.579Z,94018.53
2023-03-11T12:47:12.293Z,94043.41
2023-03-11T12:49:44.908Z,94022.91
2023-03-11T12:52:12.027Z,94036.88
2023-03-11T12:54:44.229Z,94026.72
2023-03-11T12:57:18.067Z,94017.69
2023-03-11T13:00:25.441Z,94041.50
2023-03-11T13:03:27.247Z,94032.91
2023-03-11T13:06:21.199Z,94025.88
2023-03-11T13:08:54.860Z,94022.44
2023-03-11T13:11:27.457Z,94032.59
2023-03-11T13:14:09.568Z,94017.38
2023-03-11T13:16:37.685Z,94000.44
2023-03-11T13:19:26.389Z,94013.31
2023-03-11T13:21:54.478Z,94005.31
2023-03-11T13:24:22.177Z,94015.91
2023-03-11T13:27:07.093Z,94014.22
2023-03-11T13:29:46.716Z,94023.63
2023-03-11T13:32:50.885Z,94032.75
2023-03-11T13:35:59.270Z,94034.56
2023-03-11T13:38:50.101Z,94028.28
2023-03-11T13:41:22.627Z,94032.06
2023-03-11T13:43:51.377Z,94029.03
2023-03-11T13:46:30.683Z,94048.28
2023-03-11T13:49:06.614Z,94050.97
2023-03-11T13:51:45.656Z,94055.56
2023-03-11T13:54:20.196Z,94057.56
2023-03-11T13:56:54.046Z,94038.22
2023-03-11T13:59:28.432Z,94039.09
2023-03-11T14:02:01.811Z,94052.78
2023-03-11T14:04:36.139Z,94050.72
2023-03-11T14:07:15.220Z,94044.31
2023-03-11T14:09:42.333Z,94044.13
2023-03-11T14:12:11.048Z,94051.88
2023-03-11T14:15:01.139Z,94051.25
2023-03-11T14:17:28.145Z,94043.91
2023-03-11T14:20:18.828Z,94053.44
2023-03-11T14:22:47.869Z,94058.47
2023-03-11T14:25:20.347Z,94054.84
2023-03-11T14:28:01.139Z,94050.47
2023-03-11T14:30:32.406Z,94056.31
2023-03-11T14:33:03.974Z,94044.09
2023-03-11T14:35:34.142Z,94054.13
2023-03-11T14:38:01.284Z,94042.03
2023-03-11T14:40:34.188Z,94046.47
2023-03-11T14:43:04.117Z,94045.19
2023-03-11T14:45:34.212Z,94055.19
2023-03-11T14:48:12.338Z,94048.81
2023-03-11T14:50:39.105Z,94042.66
2023-03-11T14:53:14.767Z,94050.44
2023-03-11T14:55:56.270Z,94042.25
2023-03-11T14:58:46.430Z,94052.50
2023-03-11T15:01:26.702Z,94065.22
2023-03-11T15:04:08.637Z,94066.66
2023-03-11T15:06:43.077Z,94066.03
2023-03-11T15:09:18.174Z,94065.75
2023-03-11T15:11:52.295Z,94069.97
2023-03-11T15:14:26.753Z,94076.22
2023-03-11T15:16:55.145Z,94069.97
2023-03-11T15:19:27.743Z,94084.31
2023-03-11T15:21:59.690Z,94090.13
2023-03-11T15:24:30.589Z,94091.41
2023-03-11T15:27:04.639Z,94081.38
2023-03-11T15:29:34.221Z,94073.78
2023-03-11T15:32:47.250Z,94084.88
2023-03-11T15:35:19.533Z,94095.09
2023-03-11T15:37:50.870Z,94108.78
2023-03-11T15:40:17.713Z,94092.06
2023-03-11T15:42:45.232Z,94108.81
2023-03-11T15:45:20.885Z,94108.28
2023-03-11T15:47:50.776Z,94101.34
2023-03-11T15:50:24.755Z,94119.22
2023-03-11T15:52:57.033Z,94121.47
2023-03-11T15:55:26.619Z,94122.22
2023-03-11T15:58:00.353Z,94120.81
2023-03-11T16:00:27.229Z,94108.41
2023-03-11T16:02:54.697Z,94121.91
2023-03-11T16:05:23.471Z,94127.13
2023-03-11T16:07:50.998Z,94125.72
2023-03-11T16:10:20.964Z,94120.25
2023-03-11T16:12:48.445Z,94130.94
2023-03-11T16:15:25.005Z,94119.56
2023-03-11T16:17:53.366Z,94121.22
2023-03-11T16:20:22.463Z,94132.91
2023-03-11T16:22:53.799Z,94128.50
2023-03-11T16:25:26.124Z,94118.34
2023-03-11T16:27:55.002Z,94109.75
2023-03-11T16:30:23.000Z,94103.25
2023-03-11T16:32:50.407Z,94109.50
2023-03-11T16:35:17.817Z,94109.81
2023-03-11T16:37:44.885Z,94102.06
2023-03-11T16:40:15.385Z,94097.81
2023-03-11T16:42:43.775Z,94109.13
2023-03-11T16:45:13.183Z,94127.53
2023-03-11T16:47:39.923Z,94121.88
2023-03-11T16:50:08.130Z,94129.53
2023-03-11T16:52:35.389Z,94130.53
2023-03-11T16:55:02.414Z,94125.75
2023-03-11T16:57:29.524Z,94134.47
2023-03-11T16:59:56.330Z,94148.00
2023-03-11T17:02:24.572Z,94163.22
2023-03-11T17:04:52.118Z,94162.19
2023-03-11T17:07:19.683Z,94149.13
2023-03-11T17:09:47.332Z,94163.25
2023-03-11T17:12:15.862Z,94176.66
2023-03-11T17:14:42.781Z,94190.34
2023-03-11T17:17:09.607Z,94192.56
2023-03-11T17:19:37.072Z,94191.31
2023-03-11T17:22:04.708Z,94189.88
2023-03-11T17:24:31.566Z,94191.63
2023-03-11T17:26:58.552Z,94186.81
2023-03-11T17:29:25.345Z,94192.94
2023-03-11T17:31:52.558Z,94211.81
2023-03-11T17:34:19.817Z,94213.31
2023-03-11T17:36:46.755Z,94206.06
2023-03-11T17:39:13.497Z,94200.31
2023-03-11T17:41:40.190Z,94205.50
2023-03-11T17:44:07.344Z,94226.41
2023-03-11T17:46:36.831Z,94234.34
2023-03-11T17:49:03.731Z,94240.88
2023-03-11T17:51:31.113Z,94245.03
2023-03-11T17:53:58.035Z,94241.06
2023-03-11T17:56:24.842Z,94254.41
2023-03-11T17:58:52.168Z,94264.25
2023-03-11T18:01:23.064Z,94260.00
2023-03-11T18:03:51.179Z,94265.38
2023-03-11T18:06:19.233Z,94270.09
2023-03-11T18:08:46.601Z,94277.63
2023-03-11T18:11:18.763Z,94268.38
2023-03-11T18:13:46.704Z,94281.03
2023-03-11T18:16:22.294Z,94288.97
2023-03-11T18:18:49.681Z,94294.09
2023-03-11T18:21:18.164Z,94286.75
2023-03-11T18:23:45.645Z,94290.88
2023-03-11T18:26:17.327Z,94290.31
2023-03-11T18:28:44.349Z,94307.22
2023-03-11T18:31:20.198Z,94298.78
2023-03-11T18:33:50.355Z,94297.34
2023-03-11T18:36:23.234Z,94310.91
2023-03-11T18:38:52.745Z,94301.56
2023-03-11T18:41:20.463Z,94297.97
2023-03-11T18:43:47.458Z,94294.44
2023-03-11T18:46:15.996Z,94299.91
2023-03-11T18:48:42.911Z,94306.75
2023-03-11T18:51:09.717Z,94292.97
2023-03-11T18:53:38.534Z,94290.50
2023-03-11T18:56:08.716Z,94300.53
2023-03-11T18:58:35.830Z,94297.63
2023-03-11T19:01:12.531Z,94300.03
2023-03-11T19:03:39.683Z,94311.00
2023-03-11T19:06:11.550Z,94300.78
2023-03-11T19:08:38.690Z,94303.28
2023-03-11T19:11:10.581Z,94298.59
2023-03-11T19:13:46.933Z,94298.44
2023-03-11T19:16:17.596Z,94289.53
2023-03-11T19:18:45.206Z,94285.78
2023-03-11T19:21:13.648Z,94296.94
2023-03-11T19:23:40.628Z,94298.59
2023-03-11T19:26:08.639Z,94307.00
2023-03-11T19:28:35.626Z,94306.41
2023-03-11T19:31:03.664Z,94305.81
2023-03-11T19:33:31.055Z,94309.09
2023-03-11T19:36:01.501Z,94312.16
2023-03-11T19:38:29.370Z,94320.59
2023-03-11T19:41:23.438Z,94326.66
2023-03-11T19:43:50.237Z,94332.66
2023-03-11T19:46:21.359Z,94337.22
2023-03-11T19:48:49.433Z,94342.28
2023-03-11T19:51:17.419Z,94335.81
2023-03-11T19:53:44.307Z,94336.13
2023-03-11T19:56:11.299Z,94337.16
2023-03-11T19:58:40.926Z,94344.53
2023-03-11T20:01:15.349Z,94325.81
2023-03-11T20:03:43.061Z,94328.53
2023-03-11T20:06:10.136Z,94329.94
2023-03-11T20:08:38.810Z,94330.84
2023-03-11T20:11:06.785Z,94329.84
2023-03-11T20:13:36.728Z,94337.56
2023-03-11T20:16:09.455Z,94334.25
2023-03-11T20:18:36.818Z,94335.31
2023-03-11T20:21:08.025Z,94348.38
2023-03-11T20:23:35.232Z,94358.09
2023-03-11T20:26:06.902Z,94349.69
2023-03-11T20:28:34.681Z,94349.81
2023-03-11T20:31:09.428Z,94352.13
2023-03-11T20:33:38.067Z,94352.19
2023-03-11T20:36:07.987Z,94343.44
2023-03-11T20:38:35.465Z,94350.16
2023-03-11T20:41:05.900Z,94354.78
2023-03-11T20:43:34.869Z,94361.09
2023-03-11T20:46:01.986Z,94359.09
2023-03-11T20:48:29.413Z,94351.63
2023-03-11T20:51:25.227Z,94352.72
2023-03-11T20:53:54.336Z,94354.78
2023-03-11T20:56:24.693Z,94338.31
2023-03-11T20:58:55.940Z,94346.91
2023-03-11T21:01:29.519Z,94365.59
2023-03-11T21:03:59.128Z,94370.72
2023-03-11T21:06:29.088Z,94363.97
2023-03-11T21:08:59.033Z,94365.78
2023-03-11T21:11:26.876Z,94360.31
2023-03-11T21:13:55.202Z,94322.72
2023-03-11T21:16:24.631Z,94308.22
2023-03-11T21:18:51.519Z,94331.28
2023-03-11T21:21:19.730Z,94343.84
2023-03-11T21:23:48.022Z,94346.94
2023-03-11T21:26:16.698Z,94337.31
2023-03-11T21:28:46.953Z,94339.84
2023-03-11T21:31:19.954Z,94327.59
2023-03-11T21:33:48.229Z,94337.91
2023-03-11T21:36:16.270Z,94343.59
2023-03-11T21:38:43.156Z,94341.63
2023-03-11T21:41:19.292Z,94347.06
2023-03-11T21:43:46.911Z,94351.16
2023-03-11T21:46:17.025Z,94352.00
2023-03-11T21:48:44.058Z,94346.00
2023-03-11T21:51:11.115Z,94352.97
2023-03-11T21:53:39.753Z,94347.22
2023-03-11T21:56:09.590Z,94344.78
2023-03-11T21:58:36.886Z,94352.91
2023-03-11T22:01:09.501Z,94358.13
2023-03-11T22:03:39.766Z,94361.16
2023-03-11T22:06:10.615Z,94372.34
2023-03-11T22:08:38.696Z,94368.28
2023-03-11T22:11:12.899Z,94367.31
2023-03-11T22:13:40.448Z,94370.63
2023-03-11T22:16:08.301Z,94367.06
2023-03-11T22:18:35.666Z,94374.22
2023-03-11T22:21:02.949Z,94365.91
2023-03-11T22:23:30.001Z,94379.25
2023-03-11T22:25:57.040Z,94360.44
2023-03-11T22:28:25.150Z,94359.72
2023-03-11T22:30:51.976Z,94363.28
2023-03-11T22:33:18.764Z,94356.66
2023-03-11T22:35:56.681Z,94354.06
2023-03-11T22:38:24.317Z,94365.81
2023-03-11T22:40:51.894Z,94354.38
2023-03-11T22:43:18.820Z,94355.41
2023-03-11T22:45:46.260Z,94350.63
2023-03-11T22:48:13.191Z,94367.47
2023-03-11T22:50:42.289Z,94372.78
2023-03-11T22:53:11.258Z,94361.16
2023-03-11T22:55:44.657Z,94379.44
2023-03-11T22:58:12.391Z,94372.59
2023-03-11T23:00:40.557Z,94382.59
2023-03-11T23:03:07.382Z,94394.41
2023-03-11T23:05:41.708Z,94391.44
2023-03-11T23:08:12.053Z,94389.38
2023-03-11T23:10:46.331Z,94385.94
2023-03-11T23:13:13.742Z,94386.41
2023-03-11T23:15:43.546Z,94367.06
2023-03-11T23:18:11.620Z,94373.94
2023-03-11T23:20:41.358Z,94378.88
2023-03-11T23:23:09.999Z,94385.03
2023-03-11T23:25:38.849Z,94376.16
2023-03-11T23:28:06.667Z,94383.38
2023-03-11T23:30:33.957Z,94380.53
2023-03-11T23:33:02.940Z,94372.47
2023-03-11T23:35:30.980Z,94374.16
2023-03-11T23:37:57.897Z,94369.34
2023-03-11T23:40:25.731Z,94374.94
2023-03-11T23:42:52.529Z,94379.50
2023-03-11T23:45:19.278Z,94381.84
2023-03-11T23:47:46.020Z,94363.34
2023-03-11T23:50:12.769Z,94360.78
2023-03-11T23:52:40.157Z,94352.22
2023-03-11T23:55:07.595Z,94376.72
2023-03-11T23:57:35.988Z,94382.72
